Time;durP1;ratioP1;P1;durP2;ratioP2;P2;SDS_P1;SDS_P2;PMS_P1;PMS_P2;Temp;Humidity;BMP_temperature;BMP_pressure;BME280_temperature;BME280_humidity;BME280_pressure;Samples;Min_cycle;Max_cycle;Signal;HPM_P1;HPM_P2
2023/03/10 00:02:20;;;;;;;5.50;2.03;;;9.60;99.90;;;;;;5037980;28;20481;-42
2023/03/10 00:04:52;;;;;;;3.10;2.00;;;9.60;99.90;;;;;;5038074;28;20914;-40
2023/03/10 00:07:18;;;;;;;5.63;2.27;;;9.60;99.90;;;;;;5038953;28;20495;-42
2023/03/10 00:09:45;;;;;;;7.17;2.60;;;9.50;1.00;;;;;;5038459;28;20892;-43
2023/03/10 00:12:11;;;;;;;7.93;2.10;;;9.50;1.00;;;;;;5038396;28;20516;-43
2023/03/10 00:14:36;;;;;;;4.13;2.10;;;9.50;99.90;;;;;;5038430;28;20831;-42
2023/03/10 00:17:03;;;;;;;4.20;2.10;;;9.50;99.90;;;;;;5038764;28;20421;-44
2023/03/10 00:19:29;;;;;;;4.23;2.43;;;9.50;99.90;;;;;;5038674;28;20187;-42
2023/03/10 00:21:54;;;;;;;2.40;1.43;;;9.40;99.90;;;;;;5039185;28;20681;-44
2023/03/10 00:24:20;;;;;;;4.20;1.87;;;9.40;1.00;;;;;;5038840;28;20440;-42
2023/03/10 00:26:48;;;;;;;3.23;1.60;;;9.40;42.50;;;;;;5037942;28;20197;-44
2023/03/10 00:29:14;;;;;;;5.00;2.10;;;9.30;99.90;;;;;;5036205;28;20336;-42
2023/03/10 00:31:39;;;;;;;5.80;1.60;;;9.30;1.00;;;;;;5036001;28;20911;-44
2023/03/10 00:34:05;;;;;;;2.87;1.70;;;9.40;1.00;;;;;;5038254;28;20174;-43
2023/03/10 00:36:31;;;;;;;3.83;1.83;;;9.30;1.00;;;;;;5036494;28;20202;-41
2023/03/10 00:39:01;;;;;;;2.50;1.50;;;9.30;63.00;;;;;;5037874;28;20303;-42
2023/03/10 00:41:32;;;;;;;2.67;1.73;;;9.30;99.90;;;;;;5037452;28;20436;-43
2023/03/10 00:43:58;;;;;;;3.57;1.60;;;9.30;99.90;;;;;;5036516;28;20490;-43
2023/03/10 00:46:24;;;;;;;2.80;1.40;;;9.20;1.00;;;;;;5038328;28;20548;-52
2023/03/10 00:48:51;;;;;;;4.33;2.30;;;9.20;1.00;;;;;;5038539;28;20453;-42
2023/03/10 00:51:18;;;;;;;2.83;1.50;;;9.20;1.00;;;;;;5037784;28;20460;-42
2023/03/10 00:53:44;;;;;;;2.60;1.43;;;9.20;1.00;;;;;;5034936;28;20697;-44
2023/03/10 00:56:23;;;;;;;5.57;1.73;;;9.20;1.00;;;;;;5033821;28;20502;-42
2023/03/10 00:58:51;;;;;;;5.13;2.30;;;9.20;44.30;;;;;;5035378;28;20433;-42
2023/03/10 01:01:26;;;;;;;4.50;1.67;;;9.20;99.90;;;;;;5035254;28;20436;-42
2023/03/10 01:03:53;;;;;;;4.00;1.70;;;9.20;99.90;;;;;;5036599;28;20565;-46
2023/03/10 01:06:19;;;;;;;2.20;1.43;;;9.20;99.90;;;;;;5036970;28;20484;-42
2023/03/10 01:08:45;;;;;;;2.80;1.57;;;9.20;99.90;;;;;;5037828;28;20413;-45
2023/03/10 01:11:15;;;;;;;5.87;1.60;;;9.20;1.00;;;;;;5037959;28;20494;-42
2023/03/10 01:13:42;;;;;;;4.40;1.83;;;9.20;1.00;;;;;;5037092;28;20182;-42
2023/03/10 01:16:07;;;;;;;4.07;1.70;;;9.20;1.00;;;;;;5037875;28;20440;-43
2023/03/10 01:18:33;;;;;;;5.03;2.13;;;9.30;99.90;;;;;;5037785;28;20672;-44
2023/03/10 01:20:59;;;;;;;3.03;1.50;;;9.30;99.90;;;;;;5036419;28;20190;-42
2023/03/10 01:23:25;;;;;;;3.70;2.03;;;9.30;99.90;;;;;;5036592;28;20556;-42
2023/03/10 01:25:51;;;;;;;3.37;1.60;;;9.30;48.30;;;;;;5035920;28;20228;-42
2023/03/10 01:28:17;;;;;;;2.13;1.50;;;9.30;1.00;;;;;;5037218;28;20414;-41
2023/03/10 01:30:43;;;;;;;3.10;1.60;;;9.30;1.00;;;;;;5037240;28;20476;-41
2023/03/10 01:33:10;;;;;;;4.83;2.23;;;9.30;99.90;;;;;;5035972;28;20178;-42
2023/03/10 01:35:36;;;;;;;5.10;2.30;;;9.30;99.90;;;;;;5036815;28;20421;-45
2023/03/10 01:38:03;;;;;;;3.80;1.50;;;9.30;9.40;;;;;;5037655;28;20421;-41
2023/03/10 01:40:28;;;;;;;5.13;2.43;;;9.30;1.00;;;;;;5037386;28;20417;-41
2023/03/10 01:43:19;;;;;;;3.30;1.80;;;9.30;1.00;;;;;;5034353;28;20583;-44
2023/03/10 01:45:44;;;;;;;3.60;1.60;;;9.30;1.30;;;;;;5035928;28;20736;-41
2023/03/10 01:48:11;;;;;;;2.47;1.10;;;9.30;1.00;;;;;;5036939;28;20424;-41
2023/03/10 01:50:37;;;;;;;2.93;1.37;;;9.40;31.20;;;;;;5036931;28;20541;-43
2023/03/10 01:53:03;;;;;;;3.70;1.30;;;9.40;72.30;;;;;;5018207;28;20689;-42
2023/03/10 01:55:40;;;;;;;2.23;1.40;;;9.40;99.90;;;;;;5034250;28;20508;-42
2023/03/10 01:58:06;;;;;;;3.57;1.30;;;9.40;99.90;;;;;;5035725;28;20476;-43
2023/03/10 02:00:32;;;;;;;2.80;1.20;;;9.50;99.90;;;;;;5035512;28;20413;-42
2023/03/10 02:03:15;;;;;;;3.80;1.30;;;9.50;1.00;;;;;;5036329;28;20578;-42
2023/03/10 02:06:03;;;;;;;3.50;1.60;;;9.50;31.00;;;;;;5035281;28;20480;-42
2023/03/10 02:08:36;;;;;;;2.30;1.13;;;9.40;99.90;;;;;;5034466;28;20516;-42
2023/03/10 02:11:03;;;;;;;2.50;1.87;;;9.40;1.00;;;;;;5034460;28;20425;-43
2023/03/10 02:13:28;;;;;;;2.93;1.30;;;9.40;47.60;;;;;;5034780;28;20512;-42
2023/03/10 02:15:54;;;;;;;5.00;1.50;;;9.30;99.90;;;;;;5035725;28;20513;-41
2023/03/10 02:18:20;;;;;;;2.57;1.30;;;9.20;1.00;;;;;;5035552;28;20285;-43
2023/03/10 02:20:58;;;;;;;2.57;1.30;;;9.20;1.00;;;;;;5037569;28;20248;-42
2023/03/10 02:23:30;;;;;;;1.70;1.00;;;9.20;99.90;;;;;;5037554;28;20417;-42
2023/03/10 02:26:19;;;;;;;3.73;1.53;;;9.10;99.90;;;;;;5036611;28;20472;-42
2023/03/10 02:28:46;;;;;;;1.77;0.90;;;9.00;1.00;;;;;;5035785;28;20430;-42
2023/03/10 02:31:12;;;;;;;1.90;1.10;;;9.00;9.30;;;;;;5036795;28;20701;-41
2023/03/10 02:33:39;;;;;;;1.77;1.20;;;8.90;99.90;;;;;;5037057;28;20428;-43
2023/03/10 02:36:18;;;;;;;2.80;1.50;;;8.90;99.90;;;;;;5035764;28;20240;-42
2023/03/10 02:38:44;;;;;;;2.60;1.30;;;8.80;99.90;;;;;;5035917;28;20429;-43
2023/03/10 02:41:22;;;;;;;3.47;1.33;;;8.80;1.00;;;;;;5036696;28;20428;-41
2023/03/10 02:43:48;;;;;;;3.10;1.33;;;8.80;1.00;;;;;;5037105;28;20221;-42
2023/03/10 02:46:14;;;;;;;2.33;1.40;;;8.60;1.00;;;;;;5036020;28;20488;-42
2023/03/10 02:48:40;;;;;;;4.00;1.43;;;8.60;1.00;;;;;;5036607;28;20456;-41
2023/03/10 02:51:10;;;;;;;2.90;1.43;;;8.60;1.00;;;;;;5036663;28;20429;-43
2023/03/10 02:53:35;;;;;;;2.50;1.10;;;8.60;49.10;;;;;;5019560;28;20262;-42
2023/03/10 02:56:01;;;;;;;4.43;1.30;;;8.60;99.90;;;;;;5038242;28;20810;-43
2023/03/10 02:58:28;;;;;;;2.07;1.10;;;8.50;99.90;;;;;;5037889;28;20221;-42
2023/03/10 03:00:54;;;;;;;3.40;1.40;;;8.50;99.90;;;;;;5036985;28;20561;-42
2023/03/10 03:03:21;;;;;;;1.90;1.17;;;8.50;99.90;;;;;;5036557;28;20421;-41
2023/03/10 03:05:48;;;;;;;1.83;1.10;;;8.40;99.90;;;;;;5036050;28;20464;-42
2023/03/10 03:08:14;;;;;;;5.90;1.47;;;8.40;99.90;;;;;;5038011;28;20746;-42
2023/03/10 03:10:40;;;;;;;1.40;1.00;;;8.40;99.90;;;;;;5038237;28;20418;-43
2023/03/10 03:13:07;;;;;;;2.77;1.17;;;8.40;99.90;;;;;;5037102;28;20417;-42
2023/03/10 03:15:32;;;;;;;1.40;0.70;;;8.30;99.90;;;;;;5038386;28;20178;-42
2023/03/10 03:17:58;;;;;;;2.83;1.10;;;8.40;99.90;;;;;;5037359;28;20909;-42
2023/03/10 03:20:25;;;;;;;2.33;1.00;;;8.40;99.90;;;;;;5037886;28;20243;-44
2023/03/10 03:22:51;;;;;;;1.70;0.80;;;8.40;99.90;;;;;;5038161;28;20524;-42
2023/03/10 03:25:19;;;;;;;2.50;0.97;;;8.30;99.90;;;;;;5038441;28;20528;-44
2023/03/10 03:27:45;;;;;;;3.67;0.80;;;8.40;99.90;;;;;;5037335;28;20167;-41
2023/03/10 03:30:25;;;;;;;1.30;0.80;;;8.30;99.90;;;;;;5039444;28;20938;-41
2023/03/10 03:32:53;;;;;;;2.50;0.80;;;8.30;99.90;;;;;;5039750;28;20417;-42
2023/03/10 03:35:23;;;;;;;1.70;0.80;;;8.30;99.90;;;;;;5039579;28;20421;-43
2023/03/10 03:37:49;;;;;;;1.23;0.50;;;8.30;99.90;;;;;;5039468;28;20762;-42
2023/03/10 03:40:16;;;;;;;4.00;0.73;;;8.30;99.90;;;;;;5039141;28;20417;-42
2023/03/10 03:42:43;;;;;;;3.83;0.80;;;8.30;99.90;;;;;;5037737;28;20437;-42
2023/03/10 03:45:09;;;;;;;1.20;0.50;;;8.40;99.90;;;;;;5037758;28;20517;-41
2023/03/10 03:47:35;;;;;;;0.80;0.47;;;8.40;99.90;;;;;;5039230;28;20425;-42
2023/03/10 03:50:02;;;;;;;1.10;0.60;;;8.40;99.90;;;;;;5038778;28;20401;-41
2023/03/10 03:52:27;;;;;;;1.00;0.50;;;8.40;99.90;;;;;;5038829;28;20174;-42
2023/03/10 03:54:53;;;;;;;1.20;0.37;;;8.40;99.90;;;;;;5036603;28;20684;-41
2023/03/10 03:57:19;;;;;;;1.20;0.50;;;8.30;99.90;;;;;;5036868;28;20472;-41
2023/03/10 03:59:44;;;;;;;1.13;0.60;;;8.30;99.90;;;;;;5036717;28;20190;-42
2023/03/10 04:02:10;;;;;;;2.53;0.60;;;8.30;99.90;;;;;;5036085;28;20193;-42
2023/03/10 04:04:36;;;;;;;1.20;0.67;;;8.30;99.90;;;;;;5035585;28;20289;-43
2023/03/10 04:07:02;;;;;;;1.20;0.63;;;8.30;99.90;;;;;;5036086;28;20171;-41
2023/03/10 04:09:28;;;;;;;0.97;0.63;;;8.40;99.90;;;;;;5036162;28;20171;-42
2023/03/10 04:11:54;;;;;;;2.90;1.00;;;8.40;99.90;;;;;;5036307;28;20511;-41
2023/03/10 04:14:19;;;;;;;2.07;0.80;;;8.40;99.90;;;;;;5036503;28;20883;-42
2023/03/10 04:16:45;;;;;;;0.90;0.60;;;8.50;99.90;;;;;;5036242;28;20175;-42
2023/03/10 04:19:11;;;;;;;1.37;0.77;;;8.40;99.90;;;;;;5037832;28;20225;-42
2023/03/10 04:21:37;;;;;;;1.53;0.90;;;8.40;99.90;;;;;;5037275;28;20224;-44
2023/03/10 04:24:03;;;;;;;2.70;0.80;;;8.40;99.90;;;;;;5037427;28;20178;-42
2023/03/10 04:26:29;;;;;;;2.23;0.80;;;8.40;99.90;;;;;;5037769;28;20271;-42
2023/03/10 04:28:56;;;;;;;1.30;0.90;;;8.40;99.90;;;;;;5038389;28;20421;-42
2023/03/10 04:31:21;;;;;;;1.37;0.70;;;8.50;99.90;;;;;;5036685;28;20261;-42
2023/03/10 04:33:47;;;;;;;3.80;0.87;;;8.50;99.90;;;;;;5036574;28;20443;-43
2023/03/10 04:36:13;;;;;;;1.30;0.70;;;8.50;99.90;;;;;;5037757;28;20182;-43
2023/03/10 04:38:39;;;;;;;4.53;1.20;;;8.40;99.90;;;;;;5037978;28;20184;-43
2023/03/10 04:41:05;;;;;;;4.83;1.13;;;8.50;99.90;;;;;;5038546;28;20435;-42
2023/03/10 04:43:31;;;;;;;2.70;1.03;;;8.50;99.90;;;;;;5037727;28;20516;-41
2023/03/10 04:45:57;;;;;;;2.37;0.80;;;8.50;99.90;;;;;;5036957;28;20461;-43
2023/03/10 04:48:23;;;;;;;2.20;1.00;;;8.50;99.90;;;;;;5036729;28;20787;-44
2023/03/10 04:51:06;;;;;;;1.43;0.70;;;8.50;99.90;;;;;;5034817;28;20668;-42
2023/03/10 04:53:34;;;;;;;1.93;0.83;;;8.60;99.90;;;;;;5034369;28;20432;-42
2023/03/10 04:56:01;;;;;;;3.30;0.93;;;8.60;99.90;;;;;;5035304;28;20481;-42
2023/03/10 04:58:27;;;;;;;2.90;0.97;;;8.50;99.90;;;;;;5035950;28;20742;-42
2023/03/10 05:00:53;;;;;;;3.20;0.90;;;8.60;99.90;;;;;;5035882;28;20429;-43
2023/03/10 05:03:18;;;;;;;1.90;1.00;;;8.50;99.90;;;;;;5035776;28;20190;-45
2023/03/10 05:05:44;;;;;;;1.47;0.73;;;8.50;99.90;;;;;;5035558;28;20299;-43
2023/03/10 05:08:10;;;;;;;4.57;1.10;;;8.40;99.90;;;;;;5033924;28;20181;-42
2023/03/10 05:10:39;;;;;;;1.97;1.00;;;8.40;99.90;;;;;;5032891;28;20522;-44
2023/03/10 05:13:04;;;;;;;3.03;1.57;;;8.40;99.90;;;;;;5034270;28;20174;-43
2023/03/10 05:15:33;;;;;;;2.20;0.80;;;8.40;99.90;;;;;;5033840;28;20424;-44
2023/03/10 05:17:59;;;;;;;2.73;1.00;;;8.40;99.90;;;;;;5035217;28;20182;-42
2023/03/10 05:20:24;;;;;;;1.27;0.83;;;8.30;99.90;;;;;;5034423;28;20641;-42
2023/03/10 05:22:50;;;;;;;3.00;1.07;;;8.20;99.90;;;;;;5033558;28;20706;-44
2023/03/10 05:25:16;;;;;;;2.07;0.90;;;8.20;99.90;;;;;;5035643;28;20568;-42
2023/03/10 05:27:41;;;;;;;3.13;1.50;;;8.20;99.90;;;;;;5035299;28;20178;-42
2023/03/10 05:30:10;;;;;;;1.47;0.97;;;8.30;99.90;;;;;;5035106;28;20567;-41
2023/03/10 05:32:36;;;;;;;2.80;1.20;;;8.20;99.90;;;;;;5033539;28;20171;-43
2023/03/10 05:35:03;;;;;;;2.13;0.97;;;8.20;99.90;;;;;;5033321;28;20421;-44
2023/03/10 05:37:29;;;;;;;1.93;1.30;;;8.20;99.90;;;;;;5033329;28;20767;-42
2023/03/10 05:39:54;;;;;;;2.37;1.00;;;8.20;99.90;;;;;;5035072;28;20455;-42
2023/03/10 05:42:21;;;;;;;1.73;1.20;;;8.20;99.90;;;;;;5031842;28;20482;-43
2023/03/10 05:44:46;;;;;;;2.27;1.17;;;8.20;99.90;;;;;;5031740;28;20304;-42
2023/03/10 05:47:17;;;;;;;2.47;1.00;;;8.30;99.90;;;;;;5032176;28;20903;-44
2023/03/10 05:49:44;;;;;;;2.53;1.07;;;8.30;99.90;;;;;;5032213;28;20186;-42
2023/03/10 05:52:09;;;;;;;3.80;1.00;;;8.40;99.90;;;;;;5033928;28;20417;-45
2023/03/10 05:54:35;;;;;;;2.40;0.80;;;8.40;99.90;;;;;;5032649;28;20421;-42
2023/03/10 05:57:01;;;;;;;2.30;1.00;;;8.40;99.90;;;;;;5031421;28;20178;-43
2023/03/10 05:59:26;;;;;;;2.80;1.10;;;8.50;99.90;;;;;;5032502;28;20443;-42
2023/03/10 06:01:52;;;;;;;3.67;1.20;;;8.50;99.90;;;;;;5033581;28;20610;-43
2023/03/10 06:04:18;;;;;;;2.53;0.97;;;8.40;99.90;;;;;;5033388;28;20255;-42
2023/03/10 06:06:43;;;;;;;1.77;1.13;;;8.40;99.90;;;;;;5031860;28;20477;-42
2023/03/10 06:09:09;;;;;;;2.00;0.97;;;8.40;99.90;;;;;;5030387;28;20178;-43
2023/03/10 06:11:34;;;;;;;3.03;1.00;;;8.30;99.90;;;;;;5030237;28;20542;-42
2023/03/10 06:14:00;;;;;;;2.40;0.90;;;8.20;1.00;;;;;;5030503;28;20187;-42
2023/03/10 06:16:26;;;;;;;2.00;0.80;;;8.20;1.00;;;;;;5030063;28;20221;-42
2023/03/10 06:18:55;;;;;;;1.97;1.23;;;8.10;1.00;;;;;;5031565;28;20190;-43
2023/03/10 06:21:21;;;;;;;1.93;0.60;;;8.10;99.90;;;;;;5030282;28;20228;-44
2023/03/10 06:23:47;;;;;;;1.63;0.77;;;8.00;99.90;;;;;;5029801;28;20669;-44
2023/03/10 06:26:14;;;;;;;2.80;0.60;;;8.00;99.90;;;;;;5029322;28;20806;-42
2023/03/10 06:28:42;;;;;;;1.27;0.60;;;8.00;99.90;;;;;;5031027;28;20181;-43
2023/03/10 06:31:12;;;;;;;1.43;0.57;;;8.00;99.90;;;;;;5035442;28;20476;-43
2023/03/10 06:33:38;;;;;;;1.30;0.60;;;8.00;99.90;;;;;;5038019;28;20411;-42
2023/03/10 06:36:04;;;;;;;2.30;0.70;;;8.00;99.90;;;;;;5037044;28;20425;-44
2023/03/10 06:38:30;;;;;;;1.37;0.70;;;7.90;1.00;;;;;;5033467;28;20464;-43
2023/03/10 06:40:56;;;;;;;1.23;0.80;;;7.90;1.00;;;;;;5034393;28;20483;-43
2023/03/10 06:43:22;;;;;;;1.87;1.20;;;7.90;1.00;;;;;;5030997;28;20171;-42
2023/03/10 06:45:48;;;;;;;1.43;0.60;;;7.80;1.00;;;;;;5032134;28;20475;-41
2023/03/10 06:48:14;;;;;;;1.13;0.60;;;7.90;1.00;;;;;;5030012;28;20170;-42
2023/03/10 06:50:41;;;;;;;3.30;3.10;;;7.90;1.00;;;;;;5032058;28;20703;-42
2023/03/10 06:53:07;;;;;;;2.83;0.77;;;8.00;1.00;;;;;;5033372;28;20417;-42
2023/03/10 06:55:32;;;;;;;2.27;0.50;;;8.10;1.00;;;;;;5033917;28;20676;-42
2023/03/10 06:57:58;;;;;;;1.33;0.60;;;8.10;1.00;;;;;;5033551;28;20512;-42
2023/03/10 07:00:23;;;;;;;1.10;0.67;;;8.20;1.00;;;;;;5032627;28;20339;-42
2023/03/10 07:02:49;;;;;;;1.80;0.60;;;8.30;1.00;;;;;;5032931;28;20633;-41
2023/03/10 07:05:15;;;;;;;1.40;0.83;;;8.30;1.00;;;;;;5036899;28;20261;-41
2023/03/10 07:07:41;;;;;;;1.63;0.80;;;8.30;1.00;;;;;;5035505;28;20175;-42
2023/03/10 07:10:07;;;;;;;1.17;0.80;;;8.50;99.90;;;;;;5036390;28;20237;-42
2023/03/10 07:12:33;;;;;;;1.07;0.63;;;8.50;99.90;;;;;;5036820;28;20570;-42
2023/03/10 07:14:59;;;;;;;1.50;0.53;;;8.50;99.90;;;;;;5034166;28;20846;-42
2023/03/10 07:17:24;;;;;;;1.90;0.97;;;8.50;99.90;;;;;;5033873;28;20190;-42
2023/03/10 07:19:50;;;;;;;1.63;0.83;;;8.60;99.90;;;;;;5035890;28;20565;-44
2023/03/10 07:22:16;;;;;;;2.50;0.90;;;8.60;99.90;;;;;;5033264;28;20182;-41
2023/03/10 07:24:41;;;;;;;1.57;0.90;;;8.60;99.90;;;;;;5034274;28;20354;-42
2023/03/10 07:27:07;;;;;;;1.83;1.10;;;8.70;99.90;;;;;;5034602;28;20178;-43
2023/03/10 07:29:33;;;;;;;3.63;1.00;;;8.70;99.90;;;;;;5036004;28;20409;-42
2023/03/10 07:31:59;;;;;;;2.40;1.30;;;8.70;99.90;;;;;;5033818;28;20417;-42
2023/03/10 07:34:25;;;;;;;1.83;0.97;;;8.60;99.90;;;;;;5034368;28;20438;-42
2023/03/10 07:36:51;;;;;;;2.10;1.20;;;8.60;99.90;;;;;;5036450;28;20416;-41
2023/03/10 07:39:16;;;;;;;4.33;1.13;;;8.60;99.90;;;;;;5036183;28;20171;-43
2023/03/10 07:41:42;;;;;;;2.23;1.10;;;8.70;99.90;;;;;;5034643;28;20259;-41
2023/03/10 07:44:08;;;;;;;3.10;1.07;;;8.70;99.90;;;;;;5033395;28;20221;-42
2023/03/10 07:46:33;;;;;;;3.47;1.20;;;8.70;99.90;;;;;;5034707;28;20206;-43
2023/03/10 07:49:03;;;;;;;2.17;1.00;;;8.70;99.90;;;;;;5034232;28;20202;-42
2023/03/10 07:51:29;;;;;;;4.23;1.17;;;8.80;99.90;;;;;;5033645;28;20265;-43
2023/03/10 07:53:55;;;;;;;3.97;1.43;;;8.90;99.90;;;;;;5032706;28;20445;-42
2023/03/10 07:56:20;;;;;;;2.63;1.03;;;8.80;1.00;;;;;;5033150;28;20469;-44
2023/03/10 07:58:46;;;;;;;4.97;1.07;;;8.70;1.00;;;;;;5033038;28;20179;-43
2023/03/10 08:01:16;;;;;;;2.53;1.03;;;8.60;1.00;;;;;;5031609;28;20194;-42
2023/03/10 08:03:42;;;;;;;3.30;1.10;;;8.50;99.90;;;;;;5030699;28;20171;-43
2023/03/10 08:06:08;;;;;;;2.90;1.73;;;8.30;99.90;;;;;;5031285;28;20538;-45
2023/03/10 08:08:33;;;;;;;2.40;0.90;;;8.60;1.00;;;;;;5033955;28;20221;-43
2023/03/10 08:11:09;;;;;;;6.40;2.00;;;8.70;99.90;;;;;;5033979;28;20413;-44
2023/03/10 08:13:35;;;;;;;2.97;1.53;;;8.80;99.90;;;;;;5035223;28;20778;-41
2023/03/10 08:16:01;;;;;;;1.47;0.60;;;9.10;99.90;;;;;;5033909;28;20429;-42
2023/03/10 08:18:28;;;;;;;1.40;0.70;;;9.10;1.00;;;;;;5034024;28;20424;-43
2023/03/10 08:20:55;;;;;;;0.90;0.50;;;8.80;1.00;;;;;;5035316;28;20429;-42
2023/03/10 08:23:20;;;;;;;1.00;0.50;;;8.70;8.20;;;;;;5034196;28;21139;-41
2023/03/10 08:25:46;;;;;;;0.90;0.60;;;8.40;99.90;;;;;;5035136;28;20508;-42
2023/03/10 08:28:12;;;;;;;1.13;0.53;;;8.30;99.90;;;;;;5032984;28;20170;-42
2023/03/10 08:30:38;;;;;;;1.00;0.57;;;8.10;99.90;;;;;;5032703;28;20234;-43
2023/03/10 08:33:07;;;;;;;1.33;0.40;;;8.10;99.90;;;;;;5035330;28;20480;-43
2023/03/10 08:35:33;;;;;;;3.00;0.57;;;8.00;99.90;;;;;;5035766;28;20900;-41
2023/03/10 08:37:59;;;;;;;1.13;0.50;;;8.00;99.90;;;;;;5035002;28;20425;-41
2023/03/10 08:40:24;;;;;;;1.30;0.60;;;8.10;99.90;;;;;;5034972;28;20767;-41
2023/03/10 08:42:50;;;;;;;2.07;0.73;;;8.30;99.90;;;;;;5033942;28;20182;-42
2023/03/10 08:45:16;;;;;;;2.07;1.10;;;8.80;99.90;;;;;;5034115;28;20209;-41
2023/03/10 08:47:41;;;;;;;2.70;0.80;;;9.30;74.10;;;;;;5034684;28;20391;-41
2023/03/10 08:50:08;;;;;;;1.60;0.80;;;9.40;2.40;;;;;;5034294;28;20210;-42
2023/03/10 08:52:33;;;;;;;2.67;0.80;;;9.70;1.00;;;;;;5032449;28;20250;-43
2023/03/10 08:54:59;;;;;;;2.93;0.97;;;9.80;1.00;;;;;;5033859;28;20448;-43
2023/03/10 08:57:25;;;;;;;2.00;0.73;;;10.50;1.00;;;;;;5033546;28;20558;-44
2023/03/10 08:59:50;;;;;;;1.97;1.00;;;11.00;99.90;;;;;;5032310;28;20244;-42
2023/03/10 09:02:19;;;;;;;2.80;0.70;;;11.20;1.00;;;;;;5033076;28;20171;-43
2023/03/10 09:04:44;;;;;;;1.70;0.77;;;11.30;1.00;;;;;;5031945;28;20228;-44
2023/03/10 09:07:10;;;;;;;2.10;0.80;;;11.00;1.00;;;;;;5030573;28;20511;-43
2023/03/10 09:09:36;;;;;;;3.20;0.73;;;11.00;1.00;;;;;;5033024;28;20182;-43
2023/03/10 09:12:02;;;;;;;3.73;0.70;;;11.60;1.00;;;;;;5033976;28;20179;-43
2023/03/10 09:14:28;;;;;;;2.83;1.27;;;12.00;1.00;;;;;;5031717;28;20513;-42
2023/03/10 09:16:54;;;;;;;1.90;0.70;;;11.80;1.00;;;;;;5016864;28;20429;-42
2023/03/10 09:19:19;;;;;;;1.77;0.63;;;11.50;1.00;;;;;;5035717;28;20217;-42
2023/03/10 09:21:46;;;;;;;3.53;0.70;;;11.20;1.00;;;;;;5033779;28;20182;-41
2023/03/10 09:24:12;;;;;;;4.73;0.80;;;11.00;99.90;;;;;;5033548;28;20171;-41
2023/03/10 09:26:37;;;;;;;9.40;1.00;;;11.00;99.90;;;;;;5034940;28;20472;-42
2023/03/10 09:29:03;;;;;;;3.13;0.97;;;11.00;99.90;;;;;;5031756;28;20418;-41
2023/03/10 09:31:34;;;;;;;6.73;1.10;;;11.00;1.00;;;;;;5033881;28;20504;-41
2023/03/10 09:34:00;;;;;;;2.17;1.00;;;11.10;1.00;;;;;;5035521;28;20429;-41
2023/03/10 09:36:26;;;;;;;1.27;0.63;;;11.00;99.90;;;;;;5034965;28;20441;-43
2023/03/10 09:38:51;;;;;;;2.90;1.10;;;10.90;99.90;;;;;;5037105;28;20194;-42
2023/03/10 09:41:36;;;;;;;4.37;1.50;;;10.80;99.90;;;;;;5036793;28;20178;-42
2023/03/10 09:44:23;;;;;;;2.47;0.83;;;10.60;80.30;;;;;;5036596;28;20254;-42
2023/03/10 09:46:54;;;;;;;2.40;0.80;;;10.40;1.00;;;;;;5034324;28;20535;-41
2023/03/10 09:49:29;;;;;;;6.30;2.80;;;10.20;95.00;;;;;;5035099;28;20405;-41
2023/03/10 09:51:54;;;;;;;2.20;0.90;;;10.10;1.00;;;;;;5033744;28;20748;-42
2023/03/10 09:54:39;;;;;;;1.90;0.90;;;10.00;99.90;;;;;;5033570;28;20474;-41
2023/03/10 09:57:13;;;;;;;2.23;0.80;;;9.90;1.00;;;;;;5034170;28;20189;-43
2023/03/10 09:59:41;;;;;;;5.10;1.00;;;9.90;1.00;;;;;;5034366;28;20412;-42
2023/03/10 10:02:20;;;;;;;3.47;1.50;;;9.90;1.00;;;;;;5049285;28;20480;-44
2023/03/10 10:04:48;;;;;;;1.70;0.63;;;9.90;1.00;;;;;;5033757;28;20453;-41
2023/03/10 10:07:16;;;;;;;5.30;2.33;;;9.80;1.00;;;;;;5035062;28;20836;-42
2023/03/10 10:09:52;;;;;;;3.87;1.40;;;9.80;1.00;;;;;;5033358;28;20420;-41
2023/03/10 10:12:22;;;;;;;2.63;1.00;;;9.70;1.00;;;;;;5034954;28;20424;-45
2023/03/10 10:14:58;;;;;;;1.60;0.90;;;9.60;99.90;;;;;;5035144;28;20511;-42
2023/03/10 10:17:53;;;;;;;3.53;0.93;;;9.60;99.90;;;;;;5065526;28;20448;-44
2023/03/10 10:20:41;;;;;;;3.37;1.10;;;9.70;99.90;;;;;;5034055;28;20413;-42
2023/03/10 10:23:43;;;;;;;3.53;0.70;;;9.80;99.90;;;;;;5033983;28;20448;-42
2023/03/10 10:26:14;;;;;;;2.00;0.87;;;9.90;99.90;;;;;;4973094;28;20486;-42
2023/03/10 10:28:45;;;;;;;1.30;0.70;;;9.90;99.90;;;;;;5025060;28;20449;-41
2023/03/10 10:31:19;;;;;;;2.47;0.80;;;10.00;1.00;;;;;;5033525;28;20584;-42
2023/03/10 10:33:59;;;;;;;4.33;1.00;;;9.90;99.90;;;;;;5032642;28;20468;-43
2023/03/10 10:36:31;;;;;;;2.57;1.00;;;9.90;1.00;;;;;;5032733;28;20420;-42
2023/03/10 10:38:57;;;;;;;1.90;1.13;;;9.80;66.30;;;;;;5032366;28;20424;-42
2023/03/10 10:41:29;;;;;;;2.23;1.00;;;10.00;45.20;;;;;;5032466;28;20462;-41
2023/03/10 10:43:57;;;;;;;2.03;0.60;;;10.10;1.00;;;;;;5034228;28;20426;-41
2023/03/10 10:46:26;;;;;;;1.63;0.67;;;10.20;1.00;;;;;;5033568;28;20890;-42
2023/03/10 10:49:09;;;;;;;4.37;0.60;;;10.30;99.90;;;;;;5032957;28;20417;-42
2023/03/10 10:51:36;;;;;;;2.47;0.70;;;10.20;9.30;;;;;;5028998;28;20831;-42
2023/03/10 10:54:05;;;;;;;1.73;0.60;;;10.10;99.90;;;;;;5030534;28;20413;-41
2023/03/10 10:56:30;;;;;;;3.17;0.83;;;10.20;99.90;;;;;;5031024;28;20429;-42
2023/03/10 10:59:00;;;;;;;1.90;0.80;;;10.30;99.90;;;;;;5031052;28;20436;-43
2023/03/10 11:01:26;;;;;;;2.17;0.83;;;10.40;15.50;;;;;;5031821;28;20224;-42
2023/03/10 11:04:12;;;;;;;3.40;1.33;;;10.30;1.00;;;;;;5030633;28;20519;-41
2023/03/10 11:06:38;;;;;;;3.53;0.67;;;10.30;1.00;;;;;;5031061;28;20465;-42
2023/03/10 11:09:07;;;;;;;2.30;0.90;;;10.30;1.00;;;;;;5030710;28;20475;-41
2023/03/10 11:11:48;;;;;;;1.97;1.00;;;10.30;1.00;;;;;;5032228;28;20478;-43
2023/03/10 11:14:40;;;;;;;3.03;1.40;;;10.20;99.90;;;;;;5032010;28;20409;-42
2023/03/10 11:17:32;;;;;;;1.40;0.80;;;9.90;99.90;;;;;;5033582;28;20520;-44
2023/03/10 11:20:19;;;;;;;2.17;1.00;;;9.80;1.00;;;;;;5032797;28;20436;-42
2023/03/10 11:23:11;;;;;;;2.50;1.10;;;9.80;99.90;;;;;;5034387;28;20428;-44
2023/03/10 11:25:42;;;;;;;1.93;1.07;;;9.90;99.90;;;;;;5034664;28;20555;-43
2023/03/10 11:28:14;;;;;;;3.77;0.90;;;9.80;99.90;;;;;;5032370;28;20512;-42
2023/03/10 11:30:54;;;;;;;1.47;0.70;;;10.10;99.90;;;;;;5035505;28;20755;-43
2023/03/10 11:33:22;;;;;;;3.07;0.77;;;10.00;1.00;;;;;;5033797;28;20769;-44
2023/03/10 11:35:50;;;;;;;1.80;0.80;;;9.80;99.90;;;;;;5032817;28;20520;-44
2023/03/10 11:38:36;;;;;;;1.87;0.93;;;9.70;99.90;;;;;;5034669;28;20440;-44
2023/03/10 11:41:23;;;;;;;2.67;0.70;;;9.60;1.00;;;;;;5017288;28;20440;-44
2023/03/10 11:44:20;;;;;;;2.93;0.90;;;9.60;1.00;;;;;;5016472;28;20735;-42
2023/03/10 11:46:53;;;;;;;1.50;0.77;;;9.60;1.00;;;;;;5035724;28;20527;-45
2023/03/10 11:49:25;;;;;;;2.37;0.90;;;9.50;1.00;;;;;;5035362;28;20418;-42
2023/03/10 11:52:03;;;;;;;6.17;1.80;;;9.50;99.90;;;;;;5036817;28;20488;-42
2023/03/10 11:54:34;;;;;;;1.90;0.70;;;9.60;99.90;;;;;;5036396;28;20441;-42
2023/03/10 11:57:05;;;;;;;2.60;1.33;;;9.80;61.50;;;;;;5017991;28;20763;-42
2023/03/10 11:59:33;;;;;;;2.10;0.97;;;10.10;1.00;;;;;;5034825;28;20418;-42
2023/03/10 12:02:09;;;;;;;1.83;0.70;;;10.50;1.00;;;;;;5031454;28;20429;-41
2023/03/10 12:05:02;;;;;;;1.23;0.50;;;10.70;99.90;;;;;;5034920;28;20421;-40
2023/03/10 12:07:43;;;;;;;2.50;0.90;;;10.60;1.00;;;;;;5034772;28;20457;-40
2023/03/10 12:10:11;;;;;;;1.13;0.60;;;10.60;1.00;;;;;;5032795;28;20454;-42
2023/03/10 12:12:40;;;;;;;3.80;0.80;;;11.00;80.10;;;;;;5034025;28;20409;-41
2023/03/10 12:15:15;;;;;;;1.23;0.73;;;11.50;1.00;;;;;;5033754;28;20429;-42
2023/03/10 12:17:40;;;;;;;2.87;0.80;;;11.40;99.90;;;;;;5035788;28;20614;-41
2023/03/10 12:20:22;;;;;;;3.33;0.53;;;11.20;1.00;;;;;;5031354;28;20516;-42
2023/03/10 12:22:49;;;;;;;1.53;0.70;;;11.10;1.00;;;;;;5025747;28;20174;-42
2023/03/10 12:25:27;;;;;;;2.07;0.70;;;10.60;99.90;;;;;;5034007;28;20460;-42
2023/03/10 12:28:11;;;;;;;1.93;0.63;;;10.40;1.00;;;;;;5034396;28;20425;-41
2023/03/10 12:30:49;;;;;;;2.50;0.63;;;10.30;99.90;;;;;;5033343;28;20465;-40
2023/03/10 12:33:33;;;;;;;3.23;1.00;;;10.20;54.10;;;;;;5033420;28;20405;-43
2023/03/10 12:36:16;;;;;;;3.80;0.80;;;10.40;1.00;;;;;;5030197;28;20531;-42
2023/03/10 12:38:45;;;;;;;1.27;0.60;;;10.50;1.00;;;;;;5030414;28;20439;-43
2023/03/10 12:41:12;;;;;;;1.47;0.50;;;10.20;1.00;;;;;;5032708;28;20522;-41
2023/03/10 12:43:56;;;;;;;1.07;0.50;;;10.20;1.00;;;;;;5030892;28;20752;-43
2023/03/10 12:46:21;;;;;;;1.83;0.70;;;10.00;1.00;;;;;;5034797;28;20467;-41
2023/03/10 12:49:18;;;;;;;1.77;0.83;;;9.90;99.90;;;;;;5035383;28;21056;-43
2023/03/10 12:51:49;;;;;;;1.70;0.60;;;9.80;1.00;;;;;;5032074;28;20174;-42
2023/03/10 12:54:33;;;;;;;1.00;0.60;;;9.70;1.00;;;;;;5032741;28;20448;-42
2023/03/10 12:57:20;;;;;;;0.87;0.43;;;9.50;1.00;;;;;;5033072;28;20498;-42
2023/03/10 13:00:21;;;;;;;1.10;0.50;;;9.40;1.00;;;;;;5031868;28;20451;-42
2023/03/10 13:02:56;;;;;;;1.27;0.50;;;9.30;99.90;;;;;;5008632;28;20830;-44
2023/03/10 13:05:24;;;;;;;0.80;0.43;;;9.20;99.90;;;;;;5034142;28;20514;-43
2023/03/10 13:07:56;;;;;;;0.70;0.30;;;9.10;99.90;;;;;;5033670;28;20767;-42
2023/03/10 13:10:23;;;;;;;0.80;0.30;;;8.90;1.00;;;;;;5029812;28;20444;-42